createdAt,value
2022-11-27T00:01:56.909Z,69.75
2022-11-27T00:04:59.658Z,68.62
2022-11-27T00:08:02.686Z,74.00
2022-11-27T00:11:14.510Z,72.57
2022-11-27T00:14:17.816Z,75.72
2022-11-27T00:17:20.522Z,76.35
2022-11-27T00:20:28.524Z,73.62
2022-11-27T00:23:32.938Z,79.72
2022-11-27T00:26:38.048Z,72.95
2022-11-27T00:29:41.416Z,74.90
2022-11-27T00:32:44.281Z,77.32
2022-11-27T00:35:47.032Z,73.87
2022-11-27T00:38:49.739Z,70.12
2022-11-27T00:41:52.498Z,73.95
2022-11-27T00:44:55.329Z,70.43
2022-11-27T00:47:58.076Z,67.25
2022-11-27T00:51:02.326Z,68.90
2022-11-27T00:54:05.732Z,63.22
2022-11-27T01:00:11.803Z,54.53
2022-11-27T01:06:18.466Z,53.53
2022-11-27T01:09:21.701Z,53.28
2022-11-27T01:12:24.616Z,51.65
2022-11-27T01:15:27.287Z,50.05
2022-11-27T01:18:30.915Z,53.35
2022-11-27T01:21:35.001Z,52.00
2022-11-27T01:24:38.121Z,50.03
2022-11-27T01:30:44.546Z,45.97
2022-11-27T01:33:48.224Z,44.67
2022-11-27T01:36:51.060Z,46.55
2022-11-27T01:39:53.866Z,45.65
2022-11-27T01:42:56.891Z,50.40
2022-11-27T01:46:00.029Z,47.45
2022-11-27T01:49:08.973Z,45.72
2022-11-27T01:52:15.592Z,50.88
2022-11-27T01:55:25.836Z,51.22
2022-11-27T01:58:30.946Z,48.65
2022-11-27T02:01:33.710Z,44.08
2022-11-27T02:04:37.177Z,49.38
2022-11-27T02:07:40.235Z,47.60
2022-11-27T02:10:58.212Z,45.15
2022-11-27T02:14:15.512Z,48.20
2022-11-27T02:17:33.046Z,46.97
2022-11-27T02:20:59.675Z,48.35
2022-11-27T02:24:38.231Z,45.58
2022-11-27T02:27:44.083Z,49.30
2022-11-27T02:30:54.678Z,50.08
2022-11-27T02:34:08.354Z,49.45
2022-11-27T02:37:21.146Z,48.30
2022-11-27T02:40:27.845Z,44.97
2022-11-27T02:43:37.551Z,45.70
2022-11-27T02:46:41.968Z,51.47
2022-11-27T02:49:46.364Z,49.92
2022-11-27T02:52:53.086Z,49.75
2022-11-27T02:55:57.436Z,50.05
2022-11-27T02:59:06.197Z,48.90
2022-11-27T03:02:15.019Z,46.60
2022-11-27T03:05:23.125Z,48.83
2022-11-27T03:08:37.314Z,50.60
2022-11-27T03:11:40.107Z,50.22
2022-11-27T03:14:43.893Z,49.63
2022-11-27T03:18:01.947Z,50.08
2022-11-27T03:21:15.983Z,52.15
2022-11-27T03:24:19.140Z,47.92
2022-11-27T03:27:42.133Z,47.50
2022-11-27T03:30:44.847Z,49.43
2022-11-27T03:33:47.707Z,50.65
2022-11-27T03:36:50.454Z,44.50
2022-11-27T03:39:53.725Z,47.70
2022-11-27T03:43:09.797Z,49.08
2022-11-27T03:46:28.682Z,44.85
2022-11-27T03:49:37.104Z,44.95
2022-11-27T03:52:52.279Z,47.28
2022-11-27T03:56:10.165Z,46.25
2022-11-27T03:59:23.607Z,44.33
2022-11-27T04:02:39.458Z,40.58
2022-11-27T04:05:42.471Z,38.70
2022-11-27T04:08:47.096Z,39.88
2022-11-27T04:11:50.099Z,39.17
2022-11-27T04:14:52.549Z,42.00
2022-11-27T04:17:55.558Z,38.88
2022-11-27T04:20:58.710Z,42.58
2022-11-27T04:24:01.736Z,37.20
2022-11-27T04:27:04.230Z,38.80
2022-11-27T04:30:07.961Z,42.47
2022-11-27T04:33:10.552Z,43.28
2022-11-27T04:36:13.541Z,44.30
2022-11-27T04:39:16.158Z,42.17
2022-11-27T04:42:19.199Z,42.75
2022-11-27T04:45:21.671Z,40.40
2022-11-27T04:48:24.689Z,45.88
2022-11-27T04:51:27.343Z,43.93
2022-11-27T04:54:30.512Z,46.55
2022-11-27T04:57:33.163Z,42.43
2022-11-27T05:00:36.234Z,45.10
2022-11-27T05:03:38.971Z,44.57
2022-11-27T05:06:41.984Z,44.13
2022-11-27T05:09:44.406Z,41.88
2022-11-27T05:12:47.415Z,46.25
2022-11-27T05:15:49.862Z,47.58
2022-11-27T05:18:52.849Z,50.72
2022-11-27T05:21:55.724Z,48.55
2022-11-27T05:28:00.922Z,56.25
2022-11-27T05:31:04.064Z,53.28
2022-11-27T05:34:07.130Z,55.92
2022-11-27T05:37:12.858Z,58.20
2022-11-27T05:40:17.721Z,62.90
2022-11-27T05:43:20.731Z,60.30
2022-11-27T05:46:23.546Z,62.87
2022-11-27T05:52:28.968Z,61.78
2022-11-27T05:55:32.289Z,59.70
2022-11-27T05:58:35.694Z,60.50
2022-11-27T06:01:38.821Z,63.95
2022-11-27T06:04:41.997Z,62.80
2022-11-27T06:07:44.953Z,58.90
2022-11-27T06:10:49.627Z,63.80
2022-11-27T06:13:52.366Z,73.00
2022-11-27T06:16:55.164Z,64.07
2022-11-27T06:19:57.890Z,66.60
2022-11-27T06:23:00.735Z,64.10
2022-11-27T06:26:22.586Z,66.53
2022-11-27T06:29:25.438Z,59.20
2022-11-27T06:32:28.181Z,57.20
2022-11-27T06:35:30.894Z,66.62
2022-11-27T06:38:35.279Z,61.97
2022-11-27T06:41:38.411Z,67.97
2022-11-27T06:44:41.355Z,63.75
2022-11-27T06:47:44.230Z,58.63
2022-11-27T06:50:46.954Z,60.35
2022-11-27T06:53:50.481Z,62.60
2022-11-27T06:56:53.194Z,71.70
2022-11-27T06:59:55.859Z,62.65
2022-11-27T07:02:58.576Z,64.87
2022-11-27T07:06:03.369Z,63.28
2022-11-27T07:09:07.002Z,60.45
2022-11-27T07:12:12.321Z,57.17
2022-11-27T07:15:15.035Z,56.92
2022-11-27T07:18:17.745Z,63.80
2022-11-27T07:21:21.305Z,70.25
2022-11-27T07:24:24.057Z,97.30
2022-11-27T07:27:26.863Z,82.57
2022-11-27T07:30:29.741Z,69.70
2022-11-27T07:33:32.722Z,61.78
2022-11-27T07:36:35.509Z,56.22
2022-11-27T07:40:00.786Z,61.83
2022-11-27T07:43:00.988Z,60.85
2022-11-27T07:46:12.458Z,57.83
2022-11-27T07:49:15.247Z,71.72
2022-11-27T07:52:17.954Z,88.70
2022-11-27T07:55:20.698Z,65.25
2022-11-27T07:58:23.439Z,57.42
2022-11-27T08:01:26.227Z,58.70
2022-11-27T08:04:29.920Z,59.30
2022-11-27T08:10:36.900Z,55.33
2022-11-27T08:13:39.374Z,60.78
2022-11-27T08:16:42.502Z,64.53
2022-11-27T08:19:45.068Z,54.60
2022-11-27T08:22:48.446Z,59.10
2022-11-27T08:25:51.015Z,56.65
2022-11-27T08:28:54.624Z,55.55
2022-11-27T08:31:57.212Z,53.50
2022-11-27T08:35:00.433Z,54.30
2022-11-27T08:38:02.891Z,54.90
2022-11-27T08:41:07.659Z,54.63
2022-11-27T08:44:10.107Z,54.83
2022-11-27T08:47:15.574Z,54.47
2022-11-27T08:50:18.112Z,55.22
2022-11-27T08:53:21.334Z,54.53
2022-11-27T08:56:25.203Z,52.42
2022-11-27T08:59:28.224Z,56.08
2022-11-27T09:02:30.808Z,54.13
2022-11-27T09:05:34.051Z,51.90
2022-11-27T09:08:36.907Z,65.97
2022-11-27T09:14:42.341Z,59.33
2022-11-27T09:17:45.491Z,56.95
2022-11-27T09:20:55.822Z,51.17
2022-11-27T09:24:01.415Z,55.03
2022-11-27T09:27:04.143Z,58.30
2022-11-27T09:30:08.703Z,58.90
2022-11-27T09:33:11.646Z,63.67
2022-11-27T09:36:17.542Z,62.72
2022-11-27T09:39:20.290Z,59.05
2022-11-27T09:45:57.359Z,62.80
2022-11-27T09:49:05.465Z,56.22
2022-11-27T09:52:18.174Z,62.88
2022-11-27T09:55:28.644Z,59.13
2022-11-27T09:58:53.599Z,61.85
2022-11-27T10:01:57.293Z,66.50
2022-11-27T10:05:13.900Z,63.92
2022-11-27T10:08:39.786Z,56.83
2022-11-27T10:11:56.887Z,62.38
2022-11-27T10:15:11.921Z,67.43
2022-11-27T10:18:14.559Z,65.70
2022-11-27T10:21:33.730Z,58.50
2022-11-27T10:24:56.310Z,65.90
2022-11-27T10:28:11.275Z,58.58
2022-11-27T10:31:17.686Z,69.65
2022-11-27T10:34:40.042Z,68.90
2022-11-27T10:37:51.477Z,63.13
2022-11-27T10:44:50.890Z,64.20
2022-11-27T10:47:53.792Z,84.68
2022-11-27T10:50:57.314Z,77.80
2022-11-27T10:54:02.396Z,65.72
2022-11-27T10:57:14.402Z,71.68
2022-11-27T11:00:23.290Z,69.37
2022-11-27T11:03:26.027Z,70.47
2022-11-27T11:06:31.256Z,68.78
2022-11-27T11:09:35.999Z,65.15
2022-11-27T11:12:38.767Z,74.00
2022-11-27T11:16:00.834Z,74.50
2022-11-27T11:19:06.177Z,76.68
2022-11-27T11:22:16.939Z,75.18
2022-11-27T11:25:21.675Z,71.43
2022-11-27T11:28:25.674Z,73.62
2022-11-27T11:31:34.906Z,78.62
2022-11-27T11:34:43.539Z,72.95
2022-11-27T11:37:46.821Z,74.28
2022-11-27T11:41:18.179Z,78.65
2022-11-27T11:44:31.116Z,76.70
2022-11-27T11:47:33.998Z,80.57
2022-11-27T11:50:41.138Z,74.07
2022-11-27T11:53:52.826Z,75.00
2022-11-27T11:57:00.177Z,67.18
2022-11-27T12:00:17.051Z,66.47
2022-11-27T12:03:58.096Z,62.42
2022-11-27T12:07:18.764Z,64.32
2022-11-27T12:10:40.316Z,63.72
2022-11-27T12:13:51.694Z,64.30
2022-11-27T12:17:20.891Z,61.97
2022-11-27T12:20:26.200Z,52.97
2022-11-27T12:23:53.419Z,53.67
2022-11-27T12:27:22.122Z,55.65
2022-11-27T12:30:36.237Z,51.15
2022-11-27T12:34:02.395Z,53.92
2022-11-27T12:37:07.066Z,53.42
2022-11-27T12:40:32.752Z,57.50
2022-11-27T12:43:41.167Z,53.28
2022-11-27T12:46:52.034Z,54.88
2022-11-27T12:50:07.764Z,54.53
2022-11-27T12:53:18.897Z,52.58
2022-11-27T12:56:42.824Z,50.00
2022-11-27T12:59:58.463Z,45.50
2022-11-27T13:03:07.453Z,43.72
2022-11-27T13:06:13.947Z,47.13
2022-11-27T13:09:25.728Z,48.30
2022-11-27T13:12:42.725Z,50.45
2022-11-27T13:15:57.930Z,47.20
2022-11-27T13:19:06.422Z,45.80
2022-11-27T13:22:14.701Z,46.85
2022-11-27T13:25:17.363Z,41.97
2022-11-27T13:28:44.602Z,46.63
2022-11-27T13:31:51.917Z,44.28
2022-11-27T13:34:59.495Z,47.53
2022-11-27T13:38:22.797Z,48.63
2022-11-27T13:44:52.487Z,46.50
2022-11-27T13:47:58.694Z,42.35
2022-11-27T13:51:01.989Z,44.13
2022-11-27T13:54:13.277Z,41.85
2022-11-27T13:57:17.538Z,45.72
2022-11-27T14:00:41.860Z,45.67
2022-11-27T14:03:45.332Z,39.75
2022-11-27T14:09:56.449Z,35.63
2022-11-27T14:13:07.536Z,42.25
2022-11-27T14:16:32.044Z,47.00
2022-11-27T14:19:43.423Z,49.85
2022-11-27T14:23:10.541Z,49.35
2022-11-27T14:26:15.321Z,48.38
2022-11-27T14:29:21.038Z,41.45
2022-11-27T14:32:23.958Z,41.78
2022-11-27T14:35:27.831Z,40.05
2022-11-27T14:38:33.080Z,43.00
2022-11-27T14:41:35.951Z,38.17
2022-11-27T14:44:38.727Z,39.85
2022-11-27T14:47:49.178Z,36.97
2022-11-27T14:50:54.668Z,39.45
2022-11-27T14:54:03.431Z,40.30
2022-11-27T14:57:07.442Z,38.28
2022-11-27T15:00:18.714Z,37.65
2022-11-27T15:03:21.902Z,38.00
2022-11-27T15:06:26.482Z,33.30
2022-11-27T15:09:32.528Z,33.05
2022-11-27T15:12:48.320Z,32.95
2022-11-27T15:15:58.844Z,32.10
2022-11-27T15:19:05.262Z,34.00
2022-11-27T15:22:18.016Z,35.28
2022-11-27T15:25:36.056Z,33.03
2022-11-27T15:28:49.337Z,31.85
2022-11-27T15:31:52.524Z,34.65
2022-11-27T15:34:55.565Z,28.60
2022-11-27T15:38:04.374Z,32.13
2022-11-27T15:41:29.055Z,32.20
2022-11-27T15:44:32.824Z,28.40
2022-11-27T15:47:37.550Z,31.98
2022-11-27T15:50:40.278Z,33.28
2022-11-27T15:53:43.106Z,31.42
2022-11-27T15:56:47.090Z,32.08
2022-11-27T15:59:49.909Z,33.70
2022-11-27T16:02:53.839Z,29.23
2022-11-27T16:05:57.013Z,33.10
2022-11-27T16:09:01.614Z,31.67
2022-11-27T16:12:04.866Z,30.62
2022-11-27T16:15:07.994Z,30.60
2022-11-27T16:18:11.842Z,30.58
2022-11-27T16:21:16.551Z,38.85
2022-11-27T16:24:19.767Z,34.75
2022-11-27T16:27:22.236Z,31.55
2022-11-27T16:30:25.336Z,32.25
2022-11-27T16:33:31.040Z,31.25
2022-11-27T16:36:34.816Z,33.05
2022-11-27T16:42:40.799Z,28.98
2022-11-27T16:45:43.482Z,30.07
2022-11-27T16:48:48.615Z,33.42
2022-11-27T16:51:52.292Z,29.35
2022-11-27T16:54:55.855Z,30.62
2022-11-27T16:57:58.870Z,32.45
2022-11-27T17:01:12.411Z,31.95
2022-11-27T17:04:20.019Z,32.55
2022-11-27T17:07:23.378Z,39.83
2022-11-27T17:10:25.869Z,38.47
2022-11-27T17:13:28.859Z,36.08
2022-11-27T17:16:31.575Z,40.20
2022-11-27T17:19:34.966Z,38.15
2022-11-27T17:22:37.755Z,29.35
2022-11-27T17:25:40.853Z,33.17
2022-11-27T17:28:43.321Z,31.05
2022-11-27T17:31:46.568Z,26.37
2022-11-27T17:34:49.275Z,31.52
2022-11-27T17:37:52.482Z,27.40
2022-11-27T17:41:03.568Z,29.00
2022-11-27T17:44:07.442Z,24.55
2022-11-27T17:47:10.100Z,31.60
2022-11-27T17:50:14.366Z,28.23
2022-11-27T17:53:16.945Z,24.53
2022-11-27T17:56:21.283Z,27.25
2022-11-27T17:59:24.794Z,24.52
2022-11-27T18:02:28.011Z,24.23
2022-11-27T18:05:31.387Z,25.40
2022-11-27T18:08:35.192Z,23.60
2022-11-27T18:11:39.769Z,28.55
2022-11-27T18:14:43.727Z,27.35
2022-11-27T18:17:47.334Z,27.83
2022-11-27T18:20:51.111Z,25.88
2022-11-27T18:27:18.962Z,27.05
2022-11-27T18:30:21.768Z,29.02
2022-11-27T18:33:24.763Z,20.40
2022-11-27T18:36:27.575Z,22.87
2022-11-27T18:39:31.536Z,21.85
2022-11-27T18:42:34.330Z,25.88
2022-11-27T18:45:37.590Z,24.45
2022-11-27T18:48:42.231Z,24.52
2022-11-27T18:51:45.287Z,30.08
2022-11-27T18:54:48.146Z,27.65
2022-11-27T18:57:50.842Z,28.50
2022-11-27T19:00:57.409Z,32.60
2022-11-27T19:04:01.554Z,32.92
2022-11-27T19:07:04.738Z,30.85
2022-11-27T19:10:08.215Z,40.45
2022-11-27T19:13:11.332Z,39.45
2022-11-27T19:16:23.684Z,40.60
2022-11-27T19:19:53.490Z,39.08
2022-11-27T19:22:50.073Z,40.85
2022-11-27T19:25:53.271Z,42.62
2022-11-27T19:28:58.082Z,47.90
2022-11-27T19:32:01.405Z,47.35
2022-11-27T19:35:07.310Z,49.05
2022-11-27T19:38:10.404Z,47.33
2022-11-27T19:41:17.816Z,45.53
2022-11-27T19:44:20.667Z,48.17
2022-11-27T19:47:23.892Z,49.55
2022-11-27T19:50:26.837Z,49.88
2022-11-27T19:53:29.719Z,55.60
2022-11-27T19:59:39.721Z,48.58
2022-11-27T20:02:45.059Z,57.35
2022-11-27T20:05:48.210Z,55.33
2022-11-27T20:08:53.517Z,48.42
2022-11-27T20:12:00.131Z,54.10
2022-11-27T20:15:07.705Z,49.15
2022-11-27T20:18:11.413Z,49.63
2022-11-27T20:21:17.032Z,49.50
2022-11-27T20:24:20.971Z,51.13
2022-11-27T20:27:23.678Z,50.55
2022-11-27T20:30:27.801Z,49.58
2022-11-27T20:33:32.527Z,52.27
2022-11-27T20:36:39.328Z,58.63
2022-11-27T20:39:44.015Z,51.03
2022-11-27T20:42:47.136Z,51.47
2022-11-27T20:45:52.339Z,44.42
2022-11-27T20:48:56.288Z,47.03
2022-11-27T20:52:00.075Z,46.28
2022-11-27T20:55:03.664Z,47.08
2022-11-27T20:58:06.324Z,50.53
2022-11-27T21:01:19.266Z,43.28
2022-11-27T21:04:25.991Z,37.92
2022-11-27T21:07:29.348Z,38.20
2022-11-27T21:10:31.914Z,45.63
2022-11-27T21:16:46.118Z,44.95
2022-11-27T21:19:49.551Z,47.10
2022-11-27T21:22:52.174Z,43.42
2022-11-27T21:28:58.888Z,42.20
2022-11-27T21:32:02.065Z,36.10
2022-11-27T21:35:05.637Z,33.00
2022-11-27T21:38:09.307Z,34.13
2022-11-27T21:47:20.287Z,32.35
2022-11-27T21:50:24.099Z,40.45
2022-11-27T21:53:26.724Z,40.88
2022-11-27T21:56:29.959Z,39.75
2022-11-27T21:59:33.959Z,40.88
2022-11-27T22:02:38.221Z,42.17
2022-11-27T22:05:41.058Z,34.53
2022-11-27T22:08:46.046Z,45.30
2022-11-27T22:11:52.470Z,41.05
2022-11-27T22:14:55.981Z,35.65
2022-11-27T22:17:59.537Z,45.05
2022-11-27T22:21:09.630Z,41.92
2022-11-27T22:24:18.513Z,44.60
2022-11-27T22:27:23.495Z,49.10
2022-11-27T22:30:27.713Z,47.08
2022-11-27T22:33:30.686Z,49.13
2022-11-27T22:36:35.713Z,43.38
2022-11-27T22:39:39.426Z,50.42
2022-11-27T22:42:42.498Z,48.85
2022-11-27T22:45:47.969Z,46.00
2022-11-27T22:48:55.597Z,55.30
2022-11-27T22:51:58.750Z,53.67
2022-11-27T22:55:01.625Z,56.13
2022-11-27T22:58:04.508Z,51.00
2022-11-27T23:01:13.577Z,53.85
2022-11-27T23:04:16.453Z,54.38
2022-11-27T23:10:28.125Z,52.58
2022-11-27T23:13:31.022Z,53.95
2022-11-27T23:16:33.971Z,51.08
2022-11-27T23:19:36.944Z,45.45
2022-11-27T23:22:39.755Z,53.45
2022-11-27T23:25:42.624Z,50.90
2022-11-27T23:28:46.956Z,53.08
2022-11-27T23:31:49.780Z,46.92
2022-11-27T23:34:52.544Z,49.05
2022-11-27T23:37:55.330Z,46.33
2022-11-27T23:41:25.240Z,46.35
2022-11-27T23:44:28.189Z,47.62
2022-11-27T23:47:30.906Z,54.83
2022-11-27T23:50:33.785Z,43.83
2022-11-27T23:53:37.151Z,47.13
2022-11-27T23:56:40.900Z,50.47
2022-11-27T23:59:44.642Z,45.47
